Perryton, Texas
Current Conditions -  °F | °C
As of 10:15 PM on Monday 22 Dec 2014 (Local Time) from KPYX Reporting Station
Scattered Clouds Scattered Clouds  
Wind Chill: 27°   Ceiling: Unl
Heat Index: 35°   Visibility: 10mi
Dew Point: 29°   Wind: 12mph
Humidity: 77%   Direction: 310°NW
Pressure: 29.76"   Gusts: NA
Location:  36.4°N, 100.8°W
Report Text: KPYX 230415Z AUTO 31010KT 10SM SCT070 02/M02 A2976 RMK AO2 T00191018
Loading
Personal Weather Stations






























Interactive Weather Map New forecast layout! Learn more

10-Day Weather Forecast

Advertisements
Track Severe Weather on mobile